createdAt,value
2017-02-22T00:01:09.538Z,927.36
2017-02-22T00:02:23.912Z,927.35
2017-02-22T00:03:38.345Z,927.33
2017-02-22T00:04:52.762Z,927.35
2017-02-22T00:06:07.182Z,927.31
2017-02-22T00:07:20.975Z,927.34
2017-02-22T00:08:35.388Z,927.3
2017-02-22T00:09:49.758Z,927.36
2017-02-22T00:11:04.161Z,927.36
2017-02-22T00:12:18.545Z,927.31
2017-02-22T00:13:32.304Z,927.26
2017-02-22T00:14:46.744Z,927.33
2017-02-22T00:16:01.162Z,927.34
2017-02-22T00:17:14.295Z,927.38
2017-02-22T00:18:28.032Z,927.36
2017-02-22T00:19:42.425Z,927.32
2017-02-22T00:20:56.246Z,927.26
2017-02-22T00:22:10.618Z,927.32
2017-02-22T00:23:25.008Z,927.36
2017-02-22T00:24:38.740Z,927.35
2017-02-22T00:25:53.116Z,927.37
2017-02-22T00:27:07.582Z,927.44
2017-02-22T00:28:21.927Z,927.45
2017-02-22T00:29:36.296Z,927.5
2017-02-22T00:30:50.714Z,927.49
2017-02-22T00:32:04.456Z,927.52
2017-02-22T00:33:18.244Z,927.55
2017-02-22T00:34:31.992Z,927.43
2017-02-22T00:35:46.419Z,927.53
2017-02-22T00:37:00.886Z,927.6
2017-02-22T00:38:15.365Z,927.57
2017-02-22T00:39:29.878Z,927.62
2017-02-22T00:40:44.340Z,927.65
2017-02-22T00:41:57.464Z,927.57
2017-02-22T00:43:11.866Z,927.57
2017-02-22T00:44:26.259Z,927.54
2017-02-22T00:45:40.661Z,927.61
2017-02-22T00:46:55.033Z,927.64
2017-02-22T00:48:08.736Z,927.64
2017-02-22T00:49:23.145Z,927.66
2017-02-22T00:50:37.534Z,927.68
2017-02-22T00:51:51.929Z,927.68
2017-02-22T00:53:06.391Z,927.67
2017-02-22T00:54:20.832Z,927.67
2017-02-22T00:55:34.005Z,927.69
2017-02-22T00:56:48.398Z,927.72
2017-02-22T00:58:02.147Z,927.73
2017-02-22T00:59:15.869Z,927.72
2017-02-22T01:00:29.663Z,927.66
2017-02-22T01:01:44.042Z,927.7
2017-02-22T01:02:58.477Z,927.7
2017-02-22T01:04:12.240Z,927.68
2017-02-22T01:05:26.657Z,927.7
2017-02-22T01:06:41.079Z,927.62
2017-02-22T01:07:54.854Z,927.61
2017-02-22T01:09:08.627Z,927.67
2017-02-22T01:10:22.387Z,927.68
2017-02-22T01:11:36.826Z,927.64
2017-02-22T01:12:50.585Z,927.68
2017-02-22T01:14:04.982Z,927.73
2017-02-22T01:15:18.769Z,927.75
2017-02-22T01:16:33.163Z,927.71
2017-02-22T01:17:47.544Z,927.69
2017-02-22T01:19:01.911Z,927.66
2017-02-22T01:20:16.353Z,927.64
2017-02-22T01:21:30.815Z,927.66
2017-02-22T01:22:44.621Z,927.68
2017-02-22T01:23:59.033Z,927.7
2017-02-22T01:25:12.789Z,927.71
2017-02-22T01:26:27.173Z,927.64
2017-02-22T01:27:41.569Z,927.67
2017-02-22T01:28:55.971Z,927.66
2017-02-22T01:30:10.362Z,927.64
2017-02-22T01:31:24.734Z,927.58
2017-02-22T01:32:39.119Z,927.55
2017-02-22T01:33:53.549Z,927.56
2017-02-22T01:35:07.339Z,927.42
2017-02-22T01:36:21.739Z,927.53
2017-02-22T01:37:36.166Z,927.51
2017-02-22T01:38:50.616Z,927.49
2017-02-22T01:40:05.022Z,927.44
2017-02-22T01:41:19.512Z,927.47
2017-02-22T01:42:33.262Z,927.42
2017-02-22T01:43:47.630Z,927.41
2017-02-22T01:45:01.374Z,927.41
2017-02-22T01:46:15.123Z,927.37
2017-02-22T01:47:29.502Z,927.42
2017-02-22T01:48:43.891Z,927.39
2017-02-22T01:49:58.241Z,927.39
2017-02-22T01:51:11.979Z,927.42
2017-02-22T01:52:25.735Z,927.38
2017-02-22T01:53:40.108Z,927.4
2017-02-22T01:54:53.865Z,927.37
2017-02-22T01:56:08.257Z,927.39
2017-02-22T01:57:21.383Z,927.46
2017-02-22T01:58:35.763Z,927.44
2017-02-22T01:59:50.136Z,927.46
2017-02-22T02:01:03.881Z,927.5
2017-02-22T02:02:18.257Z,927.44
2017-02-22T02:03:32.641Z,927.46
2017-02-22T02:04:47.067Z,927.44
2017-02-22T02:06:01.440Z,927.44
2017-02-22T02:07:15.197Z,927.47
2017-02-22T02:08:29.625Z,927.39
2017-02-22T02:09:44.020Z,927.38
2017-02-22T02:10:58.415Z,927.46
2017-02-22T02:12:12.896Z,927.43
2017-02-22T02:13:26.713Z,927.45
2017-02-22T02:14:41.082Z,927.46
2017-02-22T02:15:54.829Z,927.53
2017-02-22T02:17:09.236Z,927.46
2017-02-22T02:18:23.617Z,927.55
2017-02-22T02:19:38.019Z,927.51
2017-02-22T02:20:52.410Z,927.53
2017-02-22T02:22:06.831Z,927.54
2017-02-22T02:23:21.231Z,927.56
2017-02-22T02:24:34.342Z,927.58
2017-02-22T02:25:48.725Z,927.56
2017-02-22T02:27:03.134Z,927.53
2017-02-22T02:28:17.527Z,927.55
2017-02-22T02:29:31.922Z,927.5
2017-02-22T02:30:45.723Z,927.5
2017-02-22T02:32:00.116Z,927.5
2017-02-22T02:33:14.544Z,927.53
2017-02-22T02:34:28.953Z,927.49
2017-02-22T02:35:43.360Z,927.49
2017-02-22T02:36:57.077Z,927.52
2017-02-22T02:38:10.878Z,927.47
2017-02-22T02:39:25.273Z,927.49
2017-02-22T02:40:39.664Z,927.5
2017-02-22T02:41:53.415Z,927.47
2017-02-22T02:43:06.531Z,927.48
2017-02-22T02:44:20.293Z,927.48
2017-02-22T02:45:34.703Z,927.47
2017-02-22T02:46:49.125Z,927.45
2017-02-22T02:48:03.561Z,927.47
2017-02-22T02:49:17.924Z,927.41
2017-02-22T02:50:32.299Z,927.4
2017-02-22T02:51:46.692Z,927.39
2017-02-22T02:53:01.148Z,927.39
2017-02-22T02:54:14.981Z,927.37
2017-02-22T02:55:29.362Z,927.35
2017-02-22T02:56:43.776Z,927.31
2017-02-22T02:57:58.141Z,927.38
2017-02-22T02:59:12.520Z,927.33
2017-02-22T03:00:26.896Z,927.41
2017-02-22T03:01:41.342Z,927.4
2017-02-22T03:02:55.822Z,927.4
2017-02-22T03:04:09.646Z,927.37
2017-02-22T03:05:22.755Z,927.34
2017-02-22T03:06:37.157Z,927.31
2017-02-22T03:07:51.544Z,927.28
2017-02-22T03:09:05.273Z,927.26
2017-02-22T03:10:19.050Z,927.28
2017-02-22T03:11:33.417Z,927.29
2017-02-22T03:12:47.158Z,927.3
2017-02-22T03:14:01.635Z,927.25
2017-02-22T03:15:14.733Z,927.22
2017-02-22T03:16:29.135Z,927.2
2017-02-22T03:17:43.515Z,927.15
2017-02-22T03:18:56.623Z,927.16
2017-02-22T03:20:09.733Z,927.16
2017-02-22T03:21:24.110Z,927.17
2017-02-22T03:22:38.525Z,927.17
2017-02-22T03:23:52.282Z,927.2
2017-02-22T03:25:05.990Z,927.17
2017-02-22T03:26:20.385Z,927.11
2017-02-22T03:27:34.768Z,927.09
2017-02-22T03:28:49.156Z,927.06
2017-02-22T03:30:03.552Z,927.06
2017-02-22T03:31:17.970Z,927.06
2017-02-22T03:32:32.340Z,927.06
2017-02-22T03:33:46.767Z,927.06
2017-02-22T03:35:00.547Z,927.03
2017-02-22T03:36:14.895Z,927.01
2017-02-22T03:37:28.629Z,927
2017-02-22T03:38:43.010Z,926.96
2017-02-22T03:39:56.791Z,927.03
2017-02-22T03:41:11.170Z,927.01
2017-02-22T03:42:25.596Z,927.07
2017-02-22T03:43:40.048Z,927.03
2017-02-22T03:44:54.462Z,927
2017-02-22T03:46:08.826Z,927.03
2017-02-22T03:47:23.223Z,927.01
2017-02-22T03:48:37.625Z,927.03
2017-02-22T03:49:52.006Z,926.96
2017-02-22T03:51:06.428Z,927
2017-02-22T03:52:20.190Z,927
2017-02-22T03:53:34.581Z,927.03
2017-02-22T03:54:49.035Z,927.09
2017-02-22T03:56:03.438Z,927.12
2017-02-22T03:57:17.881Z,927.08
2017-02-22T03:58:32.313Z,927.11
2017-02-22T03:59:46.686Z,927.12
2017-02-22T04:00:59.789Z,927.14
2017-02-22T04:02:14.185Z,927.12
2017-02-22T04:03:28.560Z,927.11
2017-02-22T04:04:42.971Z,927.1
2017-02-22T04:05:57.341Z,927.11
2017-02-22T04:07:11.099Z,927.07
2017-02-22T04:08:24.849Z,927.09
2017-02-22T04:09:39.237Z,927.08
2017-02-22T04:10:53.663Z,927.07
2017-02-22T04:12:08.076Z,927.05
2017-02-22T04:13:22.481Z,927.03
2017-02-22T04:14:36.897Z,927.06
2017-02-22T04:15:51.284Z,927.1
2017-02-22T04:17:05.057Z,927.1
2017-02-22T04:18:18.862Z,927.13
2017-02-22T04:19:33.280Z,927.13
2017-02-22T04:20:47.651Z,927.15
2017-02-22T04:22:15.906Z,927.11
2017-02-22T04:23:30.329Z,927.06
2017-02-22T04:24:44.067Z,927.04
2017-02-22T04:25:58.488Z,927
2017-02-22T04:27:12.857Z,927.02
2017-02-22T04:28:27.301Z,927.04
2017-02-22T04:29:41.706Z,927.04
2017-02-22T04:30:56.112Z,927.03
2017-02-22T04:32:10.542Z,927.03
2017-02-22T04:33:24.943Z,926.99
2017-02-22T04:34:39.337Z,926.98
2017-02-22T04:35:53.698Z,926.98
2017-02-22T04:37:07.483Z,926.95
2017-02-22T04:38:21.286Z,926.92
2017-02-22T04:39:35.043Z,926.93
2017-02-22T04:40:49.445Z,926.89
2017-02-22T04:42:03.862Z,926.88
2017-02-22T04:43:18.271Z,926.87
2017-02-22T04:44:32.028Z,926.89
2017-02-22T04:45:46.402Z,926.88
2017-02-22T04:47:00.797Z,926.88
2017-02-22T04:48:14.599Z,926.86
2017-02-22T04:49:28.990Z,926.85
2017-02-22T04:50:42.753Z,926.83
2017-02-22T04:51:57.109Z,926.86
2017-02-22T04:53:10.877Z,926.79
2017-02-22T04:54:25.271Z,926.79
2017-02-22T04:55:39.656Z,926.79
2017-02-22T04:56:54.086Z,926.74
2017-02-22T04:58:07.828Z,926.75
2017-02-22T04:59:21.571Z,926.73
2017-02-22T05:00:35.952Z,926.73
2017-02-22T05:01:50.433Z,926.75
2017-02-22T05:03:04.822Z,926.69
2017-02-22T05:04:17.920Z,926.68
2017-02-22T05:05:32.369Z,926.69
2017-02-22T05:06:46.769Z,926.62
2017-02-22T05:08:00.562Z,926.62
2017-02-22T05:09:15.009Z,926.63
2017-02-22T05:10:29.447Z,926.66
2017-02-22T05:11:43.833Z,926.6
2017-02-22T05:12:58.242Z,926.62
2017-02-22T05:14:12.020Z,926.63
2017-02-22T05:15:26.423Z,926.66
2017-02-22T05:16:40.822Z,926.66
2017-02-22T05:17:55.253Z,926.66
2017-02-22T05:19:09.635Z,926.66
2017-02-22T05:20:23.407Z,926.67
2017-02-22T05:21:37.854Z,926.64
2017-02-22T05:22:51.599Z,926.65
2017-02-22T05:24:04.777Z,926.64
2017-02-22T05:25:19.167Z,926.63
2017-02-22T05:26:33.581Z,926.64
2017-02-22T05:27:47.348Z,926.65
2017-02-22T05:29:01.765Z,926.64
2017-02-22T05:30:16.138Z,926.67
2017-02-22T05:31:30.570Z,926.65
2017-02-22T05:32:44.924Z,926.67
2017-02-22T05:33:58.656Z,926.63
2017-02-22T05:35:13.060Z,926.63
2017-02-22T05:36:26.815Z,926.64
2017-02-22T05:37:41.171Z,926.63
2017-02-22T05:38:55.610Z,926.6
2017-02-22T05:40:10.029Z,926.64
2017-02-22T05:41:23.775Z,926.63
2017-02-22T05:42:38.198Z,926.63
2017-02-22T05:43:52.570Z,926.62
2017-02-22T05:45:06.965Z,926.63
2017-02-22T05:46:20.756Z,926.62
2017-02-22T05:47:35.186Z,926.59
2017-02-22T05:48:49.594Z,926.58
2017-02-22T05:50:03.983Z,926.61
2017-02-22T05:51:18.406Z,926.53
2017-02-22T05:52:32.828Z,926.52
2017-02-22T05:53:46.581Z,926.48
2017-02-22T05:55:00.309Z,926.48
2017-02-22T05:56:14.749Z,926.4
2017-02-22T05:57:29.133Z,926.42
2017-02-22T05:58:43.530Z,926.43
2017-02-22T05:59:57.897Z,926.4
2017-02-22T06:01:11.665Z,926.43
2017-02-22T06:02:26.104Z,926.47
2017-02-22T06:03:40.496Z,926.47
2017-02-22T06:04:54.928Z,926.48
2017-02-22T06:06:08.702Z,926.49
2017-02-22T06:07:22.528Z,926.45
2017-02-22T06:08:36.259Z,926.45
2017-02-22T06:09:50.621Z,926.5
2017-02-22T06:11:04.989Z,926.45
2017-02-22T06:12:19.387Z,926.48
2017-02-22T06:13:33.809Z,926.43
2017-02-22T06:14:48.174Z,926.45
2017-02-22T06:16:02.613Z,926.43
2017-02-22T06:17:16.345Z,926.45
2017-02-22T06:18:30.091Z,926.42
2017-02-22T06:19:43.829Z,926.43
2017-02-22T06:20:58.203Z,926.47
2017-02-22T06:22:11.981Z,926.46
2017-02-22T06:23:25.757Z,926.47
2017-02-22T06:24:40.175Z,926.47
2017-02-22T06:25:54.553Z,926.44
2017-02-22T06:27:08.966Z,926.43
2017-02-22T06:28:22.712Z,926.43
2017-02-22T06:29:37.155Z,926.43
2017-02-22T06:30:51.591Z,926.43
2017-02-22T06:32:05.966Z,926.38
2017-02-22T06:33:20.347Z,926.41
2017-02-22T06:34:34.749Z,926.4
2017-02-22T06:35:49.187Z,926.42
2017-02-22T06:37:02.979Z,926.38
2017-02-22T06:38:17.374Z,926.35
2017-02-22T06:39:31.784Z,926.38
2017-02-22T06:40:45.579Z,926.36
2017-02-22T06:41:59.335Z,926.33
2017-02-22T06:43:13.726Z,926.32
2017-02-22T06:44:28.118Z,926.29
2017-02-22T06:45:42.483Z,926.33
2017-02-22T06:46:56.881Z,926.34
2017-02-22T06:48:11.351Z,926.35
2017-02-22T06:49:25.733Z,926.34
2017-02-22T06:50:40.107Z,926.32
2017-02-22T06:51:53.871Z,926.35
2017-02-22T06:53:08.260Z,926.36
2017-02-22T06:54:21.404Z,926.35
2017-02-22T06:55:35.157Z,926.35
2017-02-22T06:56:49.566Z,926.34
2017-02-22T06:58:03.952Z,926.34
2017-02-22T06:59:18.375Z,926.3
2017-02-22T07:00:32.777Z,926.29
2017-02-22T07:01:46.544Z,926.3
2017-02-22T07:03:00.310Z,926.27
2017-02-22T07:04:14.071Z,926.26
2017-02-22T07:05:28.452Z,926.3
2017-02-22T07:06:42.923Z,926.3
2017-02-22T07:07:57.331Z,926.3
2017-02-22T07:09:11.727Z,926.3
2017-02-22T07:10:26.112Z,926.32
2017-02-22T07:11:39.938Z,926.33
2017-02-22T07:12:53.772Z,926.34
2017-02-22T07:14:08.223Z,926.35
2017-02-22T07:15:22.637Z,926.36
2017-02-22T07:16:36.340Z,926.34
2017-02-22T07:17:50.726Z,926.38
2017-02-22T07:19:05.301Z,926.33
2017-02-22T07:20:19.795Z,926.34
2017-02-22T07:21:34.216Z,926.34
2017-02-22T07:22:48.628Z,926.36
2017-02-22T07:24:03.384Z,926.36
2017-02-22T07:25:17.119Z,926.36
2017-02-22T07:26:31.486Z,926.36
2017-02-22T07:27:45.871Z,926.36
2017-02-22T07:29:00.339Z,926.45
2017-02-22T07:30:14.165Z,926.43
2017-02-22T07:31:28.624Z,926.44
2017-02-22T07:32:43.030Z,926.48
2017-02-22T07:33:57.453Z,926.48
2017-02-22T07:35:11.824Z,926.49
2017-02-22T07:36:25.613Z,926.48
2017-02-22T07:37:40.032Z,926.5
2017-02-22T07:38:54.438Z,926.52
2017-02-22T07:40:08.803Z,926.52
2017-02-22T07:41:23.252Z,926.51
2017-02-22T07:42:37.637Z,926.48
2017-02-22T07:43:51.375Z,926.46
2017-02-22T07:45:05.757Z,926.43
2017-02-22T07:46:20.197Z,926.44
2017-02-22T07:47:34.591Z,926.39
2017-02-22T07:48:48.982Z,926.42
2017-02-22T07:50:03.446Z,926.4
2017-02-22T07:51:17.856Z,926.46
2017-02-22T07:52:32.287Z,926.46
2017-02-22T07:53:46.042Z,926.47
2017-02-22T07:55:00.414Z,926.5
2017-02-22T07:56:14.793Z,926.49
2017-02-22T07:57:29.209Z,926.47
2017-02-22T07:58:43.589Z,926.45
2017-02-22T07:59:58.003Z,926.41
2017-02-22T08:01:11.717Z,926.46
2017-02-22T08:02:26.092Z,926.49
2017-02-22T08:03:39.913Z,926.5
2017-02-22T08:04:54.312Z,926.48
2017-02-22T08:06:08.044Z,926.52
2017-02-22T08:07:22.477Z,926.52
2017-02-22T08:08:36.856Z,926.57
2017-02-22T08:09:51.279Z,926.58
2017-02-22T08:11:05.040Z,926.59
2017-02-22T08:12:19.438Z,926.55
2017-02-22T08:13:33.883Z,926.59
2017-02-22T08:14:48.261Z,926.59
2017-02-22T08:16:02.032Z,926.64
2017-02-22T08:17:15.798Z,926.66
2017-02-22T08:18:29.551Z,926.63
2017-02-22T08:19:43.293Z,926.66
2017-02-22T08:20:56.430Z,926.65
2017-02-22T08:22:10.857Z,926.67
2017-02-22T08:23:25.298Z,926.69
2017-02-22T08:24:39.703Z,926.7
2017-02-22T08:25:54.109Z,926.74
2017-02-22T08:27:08.512Z,926.69
2017-02-22T08:28:22.872Z,926.73
2017-02-22T08:29:36.617Z,926.73
2017-02-22T08:30:50.411Z,926.75
2017-02-22T08:32:04.861Z,926.77
2017-02-22T08:33:18.632Z,926.79
2017-02-22T08:34:33.014Z,926.85
2017-02-22T08:35:46.729Z,926.84
2017-02-22T08:37:01.135Z,926.83
2017-02-22T08:38:15.526Z,926.86
2017-02-22T08:39:29.959Z,926.83
2017-02-22T08:40:43.710Z,926.9
2017-02-22T08:41:58.106Z,926.88
2017-02-22T08:43:12.503Z,926.9
2017-02-22T08:44:26.293Z,926.91
2017-02-22T08:45:40.652Z,926.96
2017-02-22T08:46:53.727Z,926.93
2017-02-22T08:48:08.181Z,926.96
2017-02-22T08:49:22.608Z,926.96
2017-02-22T08:50:36.997Z,926.95
2017-02-22T08:51:51.367Z,926.96
2017-02-22T08:53:05.821Z,926.99
2017-02-22T08:54:19.565Z,927
2017-02-22T08:55:33.984Z,926.99
2017-02-22T08:56:48.427Z,927.03
2017-02-22T08:58:02.849Z,927.06
2017-02-22T08:59:16.607Z,927.09
2017-02-22T09:00:30.998Z,927.09
2017-02-22T09:01:44.150Z,927.11
2017-02-22T09:02:57.890Z,927.11
2017-02-22T09:04:11.653Z,927.13
2017-02-22T09:05:26.080Z,927.13
2017-02-22T09:06:39.863Z,927.18
2017-02-22T09:07:53.935Z,927.18
2017-02-22T09:09:07.705Z,927.17
2017-02-22T09:10:22.124Z,927.2
2017-02-22T09:11:36.527Z,927.2
2017-02-22T09:12:50.287Z,927.22
2017-02-22T09:14:04.659Z,927.23
2017-02-22T09:15:19.035Z,927.26
2017-02-22T09:16:32.790Z,927.24
2017-02-22T09:17:46.543Z,927.28
2017-02-22T09:19:00.976Z,927.28
2017-02-22T09:20:15.347Z,927.3
2017-02-22T09:21:29.727Z,927.29
2017-02-22T09:22:44.155Z,927.31
2017-02-22T09:23:57.903Z,927.31
2017-02-22T09:25:11.645Z,927.33
2017-02-22T09:26:26.061Z,927.32
2017-02-22T09:27:39.845Z,927.33
2017-02-22T09:28:54.287Z,927.36
2017-02-22T09:30:08.044Z,927.35
2017-02-22T09:31:22.433Z,927.38
2017-02-22T09:32:36.822Z,927.39
2017-02-22T09:33:51.193Z,927.39
2017-02-22T09:35:04.920Z,927.41
2017-02-22T09:36:18.060Z,927.38
2017-02-22T09:37:32.483Z,927.41
2017-02-22T09:38:46.992Z,927.41
2017-02-22T09:40:01.397Z,927.41
2017-02-22T09:41:15.778Z,927.44
2017-02-22T09:42:30.207Z,927.4
2017-02-22T09:43:43.941Z,927.41
2017-02-22T09:44:57.073Z,927.39
2017-02-22T09:46:10.850Z,927.42
2017-02-22T09:47:24.558Z,927.42
2017-02-22T09:48:38.940Z,927.44
2017-02-22T09:49:53.361Z,927.47
2017-02-22T09:51:06.462Z,927.48
2017-02-22T09:52:20.862Z,927.5
2017-02-22T09:53:33.971Z,927.54
2017-02-22T09:54:47.782Z,927.56
2017-02-22T09:56:02.185Z,927.55
2017-02-22T09:57:16.545Z,927.57
2017-02-22T09:58:30.297Z,927.56
2017-02-22T09:59:44.704Z,927.57
2017-02-22T10:00:58.477Z,927.59
2017-02-22T10:02:12.272Z,927.58
2017-02-22T10:03:26.717Z,927.65
2017-02-22T10:04:41.112Z,927.71
2017-02-22T10:05:54.847Z,927.71
2017-02-22T10:07:09.256Z,927.75
2017-02-22T10:08:23.691Z,927.78
2017-02-22T10:09:38.074Z,927.8
2017-02-22T10:10:51.843Z,927.81
2017-02-22T10:12:06.269Z,927.81
2017-02-22T10:13:20.681Z,927.84
2017-02-22T10:14:35.050Z,927.8
2017-02-22T10:15:49.518Z,927.8
2017-02-22T10:17:03.896Z,927.82
2017-02-22T10:18:18.278Z,927.82
2017-02-22T10:19:32.683Z,927.81
2017-02-22T10:20:46.432Z,927.83
2017-02-22T10:22:00.180Z,927.86
2017-02-22T10:23:13.268Z,927.88
2017-02-22T10:24:27.074Z,927.9
2017-02-22T10:25:41.480Z,927.9
2017-02-22T10:26:55.898Z,927.91
2017-02-22T10:28:09.663Z,927.95
2017-02-22T10:29:24.096Z,927.98
2017-02-22T10:30:38.513Z,927.95
2017-02-22T10:31:52.273Z,927.94
2017-02-22T10:33:06.651Z,927.97
2017-02-22T10:34:20.411Z,927.98
2017-02-22T10:35:34.821Z,927.96
2017-02-22T10:36:49.264Z,928.02
2017-02-22T10:38:03.674Z,928
2017-02-22T10:39:17.480Z,928.04
2017-02-22T10:40:31.243Z,928.03
2017-02-22T10:41:45.648Z,928.03
2017-02-22T10:43:00.050Z,928.06
2017-02-22T10:44:14.464Z,928.1
2017-02-22T10:45:28.247Z,928.11
2017-02-22T10:46:42.665Z,928.1
2017-02-22T10:47:57.089Z,928.12
2017-02-22T10:49:10.902Z,928.16
2017-02-22T10:50:25.301Z,928.16
2017-02-22T10:51:39.726Z,928.2
2017-02-22T10:52:53.456Z,928.22
2017-02-22T10:54:07.863Z,928.24
2017-02-22T10:55:20.955Z,928.21
2017-02-22T10:56:35.344Z,928.26
2017-02-22T10:57:49.732Z,928.3
2017-02-22T10:59:03.527Z,928.26
2017-02-22T11:00:17.974Z,928.35
2017-02-22T11:01:32.396Z,928.32
2017-02-22T11:02:46.179Z,928.35
2017-02-22T11:03:59.285Z,928.34
2017-02-22T11:05:13.687Z,928.35
2017-02-22T11:06:28.115Z,928.34
2017-02-22T11:07:42.530Z,928.38
2017-02-22T11:08:56.959Z,928.36
2017-02-22T11:10:11.388Z,928.4
2017-02-22T11:11:25.171Z,928.41
2017-02-22T11:12:38.967Z,928.44
2017-02-22T11:13:53.404Z,928.45
2017-02-22T11:15:07.813Z,928.5
2017-02-22T11:16:21.617Z,928.46
2017-02-22T11:17:36.007Z,928.47
2017-02-22T11:18:50.488Z,928.49
2017-02-22T11:20:04.897Z,928.48
2017-02-22T11:21:19.334Z,928.47
2017-02-22T11:22:33.759Z,928.49
2017-02-22T11:23:48.133Z,928.49
2017-02-22T11:25:02.570Z,928.48
2017-02-22T11:26:16.957Z,928.54
2017-02-22T11:27:30.764Z,928.5
2017-02-22T11:28:45.220Z,928.54
2017-02-22T11:29:59.632Z,928.55
2017-02-22T11:31:14.052Z,928.55
2017-02-22T11:32:28.478Z,928.52
2017-02-22T11:33:42.915Z,928.51
2017-02-22T11:34:57.316Z,928.55
2017-02-22T11:36:11.743Z,928.55
2017-02-22T11:37:26.186Z,928.57
2017-02-22T11:38:40.611Z,928.53
2017-02-22T11:39:54.989Z,928.54
2017-02-22T11:41:09.406Z,928.51
2017-02-22T11:42:23.819Z,928.56
2017-02-22T11:43:37.727Z,928.52
2017-02-22T11:44:51.537Z,928.58
2017-02-22T11:46:05.940Z,928.53
2017-02-22T11:47:20.393Z,928.54
2017-02-22T11:48:34.786Z,928.57
2017-02-22T11:49:47.899Z,928.52
2017-02-22T11:51:01.668Z,928.54
2017-02-22T11:52:16.073Z,928.51
2017-02-22T11:53:30.435Z,928.55
2017-02-22T11:54:44.216Z,928.59
2017-02-22T11:55:58.638Z,928.57
2017-02-22T11:57:11.731Z,928.58
2017-02-22T11:58:26.152Z,928.6
2017-02-22T11:59:40.605Z,928.56
2017-02-22T12:00:54.979Z,928.56
2017-02-22T12:02:08.793Z,928.57
2017-02-22T12:03:21.949Z,928.52
2017-02-22T12:04:35.721Z,928.52
2017-02-22T12:05:49.505Z,928.59
2017-02-22T12:07:03.268Z,928.58
2017-02-22T12:08:17.692Z,928.6
2017-02-22T12:09:31.490Z,928.6
2017-02-22T12:10:45.292Z,928.62
2017-02-22T12:11:59.702Z,928.65
2017-02-22T12:13:13.503Z,928.6
2017-02-22T12:14:27.887Z,928.59
2017-02-22T12:15:41.674Z,928.6
2017-02-22T12:16:55.437Z,928.64
2017-02-22T12:18:09.855Z,928.59
2017-02-22T12:19:22.965Z,928.61
2017-02-22T12:20:37.428Z,928.63
2017-02-22T12:21:51.872Z,928.59
2017-02-22T12:23:05.678Z,928.67
2017-02-22T12:24:19.446Z,928.6
2017-02-22T12:25:33.846Z,928.57
2017-02-22T12:26:48.333Z,928.57
2017-02-22T12:28:02.746Z,928.55
2017-02-22T12:29:15.851Z,928.48
2017-02-22T12:30:29.615Z,928.45
2017-02-22T12:31:43.425Z,928.45
2017-02-22T12:32:57.878Z,928.4
2017-02-22T12:34:12.296Z,928.38
2017-02-22T12:35:26.692Z,928.43
2017-02-22T12:36:40.545Z,928.46
2017-02-22T12:37:54.329Z,928.48
2017-02-22T12:39:08.765Z,928.44
2017-02-22T12:40:22.537Z,928.43
2017-02-22T12:41:36.943Z,928.42
2017-02-22T12:42:51.362Z,928.5
2017-02-22T12:44:05.118Z,928.5
2017-02-22T12:45:19.588Z,928.51
2017-02-22T12:46:34.031Z,928.49
2017-02-22T12:47:48.402Z,928.46
2017-02-22T12:49:02.153Z,928.5
2017-02-22T12:50:15.928Z,928.52
2017-02-22T12:51:29.711Z,928.46
2017-02-22T12:52:44.132Z,928.53
2017-02-22T12:53:57.854Z,928.53
2017-02-22T12:55:12.308Z,928.53
2017-02-22T12:56:26.782Z,928.52
2017-02-22T12:57:40.546Z,928.49
2017-02-22T12:58:54.341Z,928.46
2017-02-22T13:00:08.718Z,928.43
2017-02-22T13:01:22.187Z,928.48
2017-02-22T13:02:41.971Z,928.48
2017-02-22T13:03:55.151Z,928.53
2017-02-22T13:05:09.729Z,928.46
2017-02-22T13:06:24.129Z,928.52
2017-02-22T13:07:38.544Z,928.44
2017-02-22T13:08:52.994Z,928.41
2017-02-22T13:10:07.411Z,928.45
2017-02-22T13:11:21.374Z,928.42
2017-02-22T13:12:35.793Z,928.41
2017-02-22T13:13:49.614Z,928.4
2017-02-22T13:15:04.050Z,928.4
2017-02-22T13:16:18.461Z,928.34
2017-02-22T13:17:32.854Z,928.38
2017-02-22T13:18:46.632Z,928.4
2017-02-22T13:20:20.276Z,928.43
2017-02-22T13:21:34.088Z,928.37
2017-02-22T13:22:47.862Z,928.38
2017-02-22T13:24:01.667Z,928.36
2017-02-22T13:25:14.795Z,928.36
2017-02-22T13:26:28.588Z,928.35
2017-02-22T13:27:43.029Z,928.34
2017-02-22T13:28:57.451Z,928.38
2017-02-22T13:30:10.581Z,928.36
2017-02-22T13:31:25.019Z,928.37
2017-02-22T13:32:39.372Z,928.41
2017-02-22T13:33:53.139Z,928.36
2017-02-22T13:35:07.555Z,928.4
2017-02-22T13:36:21.985Z,928.35
2017-02-22T13:37:35.800Z,928.34
2017-02-22T13:38:50.219Z,928.32
2017-02-22T13:40:04.655Z,928.26
2017-02-22T13:41:17.788Z,928.34
2017-02-22T13:42:32.204Z,928.26
2017-02-22T13:43:46.633Z,928.23
2017-02-22T13:45:01.054Z,928.22
2017-02-22T13:46:14.874Z,928.23
2017-02-22T13:47:29.291Z,928.14
2017-02-22T13:48:43.097Z,928.16
2017-02-22T13:49:56.889Z,928.15
2017-02-22T13:51:10.669Z,928.14
2017-02-22T13:52:25.119Z,928.15
2017-02-22T13:53:39.534Z,928.17
2017-02-22T13:54:53.290Z,928.1
2017-02-22T13:56:07.093Z,928.1
2017-02-22T13:57:21.562Z,928.12
2017-02-22T13:58:35.966Z,928.04
2017-02-22T13:59:50.355Z,928.02
2017-02-22T14:01:04.178Z,927.98
2017-02-22T14:02:18.665Z,928.04
2017-02-22T14:03:33.078Z,927.96
2017-02-22T14:04:46.892Z,928
2017-02-22T14:06:01.283Z,927.99
2017-02-22T14:07:15.074Z,928
2017-02-22T14:08:29.555Z,928.02
2017-02-22T14:09:43.952Z,928.03
2017-02-22T14:10:58.359Z,928.02
2017-02-22T14:12:12.111Z,928
2017-02-22T14:13:25.908Z,927.95
2017-02-22T14:14:40.316Z,927.95
2017-02-22T14:15:54.737Z,927.98
2017-02-22T14:17:08.500Z,927.95
2017-02-22T14:18:22.315Z,927.96
2017-02-22T14:19:36.729Z,927.91
2017-02-22T14:20:51.108Z,927.92
2017-02-22T14:22:05.541Z,927.88
2017-02-22T14:23:19.316Z,927.83
2017-02-22T14:24:33.080Z,927.83
2017-02-22T14:25:46.823Z,927.8
2017-02-22T14:27:00.636Z,927.83
2017-02-22T14:28:15.099Z,927.77
2017-02-22T14:29:29.477Z,927.74
2017-02-22T14:30:43.839Z,927.74
2017-02-22T14:31:57.644Z,927.69
2017-02-22T14:33:11.391Z,927.68
2017-02-22T14:34:25.978Z,927.67
2017-02-22T14:35:40.434Z,927.62
2017-02-22T14:36:54.865Z,927.62
2017-02-22T14:38:08.747Z,927.63
2017-02-22T14:39:22.515Z,927.65
2017-02-22T14:40:36.913Z,927.6
2017-02-22T14:41:51.333Z,927.55
2017-02-22T14:43:05.737Z,927.56
2017-02-22T14:44:19.527Z,927.55
2017-02-22T14:45:33.358Z,927.53
2017-02-22T14:46:47.133Z,927.49
2017-02-22T14:48:00.929Z,927.49
2017-02-22T14:49:15.379Z,927.55
2017-02-22T14:50:29.863Z,927.45
2017-02-22T14:51:44.339Z,927.45
2017-02-22T14:52:58.112Z,927.47
2017-02-22T14:54:12.530Z,927.4
2017-02-22T14:55:26.934Z,927.44
2017-02-22T14:56:41.430Z,927.43
2017-02-22T14:57:55.859Z,927.4
2017-02-22T14:59:10.287Z,927.38
2017-02-22T15:00:24.100Z,927.34
2017-02-22T15:01:38.507Z,927.28
2017-02-22T15:02:53.349Z,927.36
2017-02-22T15:04:07.816Z,927.34
2017-02-22T15:05:22.222Z,927.33
2017-02-22T15:06:36.607Z,927.32
2017-02-22T15:07:51.059Z,927.33
2017-02-22T15:09:05.479Z,927.31
2017-02-22T15:10:19.887Z,927.36
2017-02-22T15:11:34.310Z,927.25
2017-02-22T15:13:01.618Z,927.29
2017-02-22T15:14:15.986Z,927.31
2017-02-22T15:15:30.404Z,927.3
2017-02-22T15:16:44.858Z,927.31
2017-02-22T15:17:59.276Z,927.25
2017-02-22T15:19:13.085Z,927.26
2017-02-22T15:20:26.255Z,927.27
2017-02-22T15:21:40.657Z,927.18
2017-02-22T15:22:55.062Z,927.18
2017-02-22T15:24:09.725Z,927.14
2017-02-22T15:25:24.312Z,927.14
2017-02-22T15:26:38.733Z,927.17
2017-02-22T15:27:52.544Z,927.16
2017-02-22T15:29:07.024Z,927.09
2017-02-22T15:30:21.475Z,927.13